FW9939 Weather Reports


Display with metric or nautical units.
time (UTC)temp
F
wind
direction
speed
MPH
gust
MPH
rain 1hr
in
rain 24hr
in
rain mn
in
humidity
%
barometer
mb
20210919060101 59 266 8.0 0.0 0.00 0.00 0.00 49 1005.6
20210919054759 59 284 6.0 0.0 0.00 0.00 0.00 49 1005.3
20210919053119 58 289 6.0 0.0 0.00 0.00 0.00 50 1005.3
20210919051621 58 273 6.0 0.0 0.00 0.00 0.00 50 1004.9
20210919050119 59 293 7.0 0.0 0.00 0.00 0.00 49 1005.0
20210919044557 59 266 4.0 0.0 0.00 0.00 0.00 49 1004.8
20210919043128 59 260 6.0 0.0 0.00 0.00 0.00 49 1004.7
20210919041617 60 282 5.0 0.0 0.00 0.00 0.00 49 1004.9
20210919040133 60 263 4.0 0.0 0.00 0.00 0.00 49 1005.2
20210919034546 60 245 4.0 0.0 0.00 0.00 0.00 49 1005.1
20210919033134 60 284 5.0 0.0 0.00 0.00 0.00 49 1004.8
20210919031642 60 272 4.0 0.0 0.00 0.00 0.00 49 1005.4
20210919030113 60 277 5.0 0.0 0.00 0.00 0.00 49 1005.2
20210919024615 60 263 8.0 0.0 0.00 0.00 0.00 48 1005.0
20210919023147 60 273 10.0 0.0 0.00 0.00 0.00 48 1004.5
20210919021552 61 273 11.0 0.0 0.00 0.00 0.00 48 1004.3
20210919020112 61 277 11.0 0.0 0.00 0.00 0.00 49 1003.9
20210919014619 62 273 11.0 0.0 0.00 0.00 0.00 47 1003.7
20210919013051 64 262 14.0 0.0 0.00 0.00 0.00 45 1003.8
20210919011554 65 284 10.0 0.0 0.00 0.00 0.00 44 1003.8
20210919010107 66 287 13.0 0.0 0.00 0.00 0.00 43 1003.6
20210919004645 67 297 12.0 0.0 0.00 0.00 0.00 41 1003.2
20210919003051 68 300 11.0 0.0 0.00 0.00 0.00 42 1002.8
20210919001547 69 283 12.0 0.0 0.00 0.00 0.00 41 1002.5
20210919000056 71 272 11.0 0.0 0.00 0.00 0.00 39 1002.1
20210918234547 72 296 9.0 0.0 0.00 0.00 0.00 37 1001.9
20210918233134 72 289 9.0 0.0 0.00 0.00 0.00 36 1001.8
20210918231543 73 283 6.0 0.0 0.00 0.00 0.00 35 1001.4
20210918230118 72 289 6.0 0.0 0.00 0.00 0.00 34 1001.4
20210918224536 73 290 9.0 0.0 0.00 0.00 0.00 34 1001.5
20210918223116 74 290 9.0 0.0 0.00 0.00 0.00 32 1001.5
20210918221553 75 297 8.0 0.0 0.00 0.00 0.00 31 1001.7
20210918220106 77 275 10.0 0.0 0.00 0.00 0.00 31 1001.8
20210918214606 80 286 8.0 0.0 0.00 0.00 0.00 30 1001.7
20210918213040 84 289 9.0 0.0 0.00 0.00 0.00 28 1001.5
20210918211614 85 222 11.0 0.0 0.00 0.00 0.00 26 1001.0
20210918210031 85 231 10.0 0.0 0.00 0.00 0.00 25 1001.0
20210918204555 85 229 11.0 0.0 0.00 0.00 0.00 25 1001.2
20210918203100 85 221 11.0 0.0 0.00 0.00 0.00 25 1001.3
20210918201525 85 184 11.0 0.0 0.00 0.00 0.00 25 1001.4
20210918200041 84 214 11.0 0.0 0.00 0.00 0.00 25 1001.3
20210918194532 85 251 10.0 0.0 0.00 0.00 0.00 26 1001.4
20210918193021 85 212 12.0 0.0 0.00 0.00 0.00 25 1001.5
20210918191537 85 221 12.0 0.0 0.00 0.00 0.00 26 1001.6
20210918190015 85 220 12.0 0.0 0.00 0.00 0.00 26 1001.8
20210918184511 84 198 10.0 0.0 0.00 0.00 0.00 27 1001.8
20210918183007 83 190 10.0 0.0 0.00 0.00 0.00 27 1002.0
20210918181528 83 217 12.0 0.0 0.00 0.00 0.00 28 1002.1
20210918180015 82 200 9.0 0.0 0.00 0.00 0.00 28 1002.1
20210918174504 83 191 10.0 0.0 0.00 0.00 0.00 28 1002.4
20210918173002 83 193 11.0 0.0 0.00 0.00 0.00 28 1002.6
20210918171639 83 187 12.0 0.0 0.00 0.00 0.00 29 1002.7
20210918170113 82 200 13.0 0.0 0.00 0.00 0.00 29 1002.8
20210918164643 80 193 12.0 0.0 0.00 0.00 0.00 31 1002.8
20210918163110 79 193 8.0 0.0 0.00 0.00 0.00 31 1002.9
20210918161612 75 164 8.0 0.0 0.00 0.00 0.00 32 1003.2
20210918160158 70 148 5.0 0.0 0.00 0.00 0.00 35 1003.5
20210918154608 68 152 6.0 0.0 0.00 0.00 0.00 35 1003.7
20210918153100 66 156 5.0 0.0 0.00 0.00 0.00 37 1003.6
20210918151542 63 153 5.0 0.0 0.00 0.00 0.00 37 1003.8
20210918150031 62 155 6.0 0.0 0.00 0.00 0.00 38 1004.0
20210918144553 60 155 2.0 0.0 0.00 0.00 0.00 40 1003.9
20210918143121 56 155 2.0 0.0 0.00 0.00 0.00 42 1004.1
20210918141547 54 155 3.0 0.0 0.00 0.00 0.00 42 1004.2
20210918140034 53 156 5.0 0.0 0.00 0.00 0.00 42 1004.5
20210918134541 51 170 3.0 0.0 0.00 0.00 0.00 45 1004.7
20210918133019 50 170 0.0 0.0 0.00 0.00 0.00 45 1004.6
20210918131604 49 170 0.0 0.0 0.00 0.00 0.00 43 1004.8
20210918130021 50 170 1.0 0.0 0.00 0.00 0.00 42 1005.0
20210918124532 51 170 4.0 0.0 0.00 0.00 0.00 41 1005.0
20210918123019 51 170 2.0 0.0 0.00 0.00 0.00 41 1005.1
20210918121534 51 170 0.0 0.0 0.00 0.00 0.00 41 1005.1
20210918120014 52 170 0.0 0.0 0.00 0.00 0.00 43 1005.5
20210918114520 53 170 0.0 0.0 0.00 0.00 0.00 42 1005.5
20210918113016 55 170 0.0 0.0 0.00 0.00 0.00 41 1005.6
20210918111520 55 170 4.0 0.0 0.00 0.00 0.00 41 1005.7
20210918110016 52 177 1.0 0.0 0.00 0.00 0.00 43 1006.0
20210918104507 53 187 0.0 0.0 0.00 0.00 0.00 42 1006.1
20210918103015 53 187 0.0 0.0 0.00 0.00 0.00 42 1006.2
20210918101509 54 187 2.0 0.0 0.00 0.00 0.00 41 1006.5
20210918100022 51 187 1.0 0.0 0.00 0.00 0.00 44 1006.6
20210918094502 50 187 0.0 0.0 0.00 0.00 0.00 45 1006.9
20210918093012 50 187 0.0 0.0 0.00 0.00 0.00 45 1007.1
20210918090156 49 187 0.0 0.0 0.00 0.00 0.00 46 1007.6
20210918084614 49 194 0.0 0.0 0.00 0.00 0.00 48 1007.6
20210918083101 49 194 0.0 0.0 0.00 0.00 0.00 48 1008.0
20210918081711 51 194 0.0 0.0 0.00 0.00 0.00 48 1008.2
20210918080118 51 194 0.0 0.0 0.00 0.00 0.00 49 1008.2
20210918074645 51 194 0.0 0.0 0.00 0.00 0.00 49 1008.5
20210918073204 51 194 0.0 0.0 0.00 0.00 0.00 46 1008.8
20210918071655 51 194 0.0 0.0 0.00 0.00 0.00 46 1008.4
20210918070112 51 194 0.0 0.0 0.00 0.00 0.00 47 1008.5
20210918064557 51 194 0.0 0.0 0.00 0.00 0.00 45 1008.6
20210918063127 51 194 0.0 0.0 0.00 0.00 0.00 45 1008.7
20210918061558 51 194 0.0 0.0 0.00 0.00 0.00 47 1008.8